Time;durP1;ratioP1;P1;durP2;ratioP2;P2;SDS_P1;SDS_P2;PMS_P1;PMS_P2;Temp;Humidity;BMP_temperature;BMP_pressure;BME280_temperature;BME280_humidity;BME280_pressure;Samples;Min_cycle;Max_cycle;Signal;HPM_P1;HPM_P2
2022/01/04 00:00:31;;;;;;;20.98;8.60;;;;;;;;;;5034797;28;20060;-72
2022/01/04 00:02:57;;;;;;;21.90;8.63;;;;;;;;;;5039827;28;20072;-72
2022/01/04 00:05:24;;;;;;;19.02;8.73;;;;;;;;;;5038170;28;20425;-71
2022/01/04 00:07:51;;;;;;;24.33;9.65;;;;;;;;;;5034660;28;20077;-71
2022/01/04 00:10:22;;;;;;;19.58;9.70;;;;;;;;;;5034639;28;20054;-70
2022/01/04 00:13:35;;;;;;;18.10;9.52;;;;;;;;;;5035001;28;20424;-72
2022/01/04 00:15:39;;;;;;;23.85;11.10;;;;;;;;;;5036144;28;20133;-72
2022/01/04 00:18:05;;;;;;;17.80;9.50;;;;;;;;;;5034841;28;20057;-71
2022/01/04 00:20:31;;;;;;;21.40;9.68;;;;;;;;;;5034133;28;20060;-71
2022/01/04 00:22:58;;;;;;;23.67;9.57;;;;;;;;;;5049315;28;20049;-71
2022/01/04 00:25:24;;;;;;;24.15;9.95;;;;;;;;;;5041865;28;20053;-72
2022/01/04 00:27:50;;;;;;;24.42;10.73;;;;;;;;;;5034247;28;20058;-70
2022/01/04 00:30:17;;;;;;;21.83;9.95;;;;;;;;;;5034341;28;20082;-72
2022/01/04 00:32:43;;;;;;;16.70;9.10;;;;;;;;;;5034391;28;20089;-70
2022/01/04 00:35:10;;;;;;;29.67;10.38;;;;;;;;;;5034950;28;20066;-71
2022/01/04 00:37:36;;;;;;;17.13;9.90;;;;;;;;;;5033942;28;20064;-72
2022/01/04 00:40:06;;;;;;;21.15;10.63;;;;;;;;;;5036499;28;20054;-71
2022/01/04 00:42:33;;;;;;;19.02;9.32;;;;;;;;;;5033657;28;20060;-71
2022/01/04 00:44:59;;;;;;;26.23;11.73;;;;;;;;;;5034173;28;20058;-71
2022/01/04 00:47:39;;;;;;;23.00;10.38;;;;;;;;;;5036242;28;20058;-71
2022/01/04 00:50:05;;;;;;;19.63;10.27;;;;;;;;;;5014441;28;20453;-71
2022/01/04 00:52:32;;;;;;;25.70;11.43;;;;;;;;;;5032883;28;20054;-71
2022/01/04 00:54:58;;;;;;;21.13;9.90;;;;;;;;;;5033203;28;20064;-68
2022/01/04 00:57:24;;;;;;;24.42;10.57;;;;;;;;;;5034499;28;20041;-71
2022/01/04 00:59:51;;;;;;;26.33;11.45;;;;;;;;;;5033317;28;20056;-71
2022/01/04 01:02:17;;;;;;;18.77;9.73;;;;;;;;;;5032811;28;20054;-73
2022/01/04 01:04:44;;;;;;;22.48;11.35;;;;;;;;;;5033778;28;20521;-71
2022/01/04 01:07:10;;;;;;;31.30;12.02;;;;;;;;;;5036384;28;20064;-71
2022/01/04 01:09:45;;;;;;;23.58;11.50;;;;;;;;;;5032844;28;20509;-70
2022/01/04 01:12:12;;;;;;;;;;;;;;;;;;5033747;28;20140;-71
2022/01/04 01:14:38;;;;;;;;;;;;;;;;;;5034392;28;45422;-70
2022/01/04 01:17:04;;;;;;;21.38;10.70;;;;;;;;;;5035027;28;45657;-71
2022/01/04 01:19:31;;;;;;;19.08;10.25;;;;;;;;;;5020489;28;20053;-70
2022/01/04 01:21:57;;;;;;;18.70;10.75;;;;;;;;;;5031836;28;20965;-71
2022/01/04 01:24:24;;;;;;;22.15;10.77;;;;;;;;;;5032307;28;20060;-71
2022/01/04 01:26:50;;;;;;;20.88;11.45;;;;;;;;;;5030969;28;20053;-71
2022/01/04 01:29:16;;;;;;;23.10;11.20;;;;;;;;;;5032666;28;20053;-71
2022/01/04 01:31:43;;;;;;;22.38;10.82;;;;;;;;;;5035288;28;20062;-72
2022/01/04 01:34:09;;;;;;;20.45;11.20;;;;;;;;;;5035267;28;20060;-72
2022/01/04 01:36:35;;;;;;;21.92;10.38;;;;;;;;;;5030630;28;20046;-72
2022/01/04 01:39:02;;;;;;;18.10;11.48;;;;;;;;;;5032130;28;20065;-72
2022/01/04 01:41:29;;;;;;;17.60;11.27;;;;;;;;;;5032146;28;20502;-70
2022/01/04 01:43:56;;;;;;;21.20;11.90;;;;;;;;;;5044819;28;20076;-71
2022/01/04 01:46:22;;;;;;;20.08;11.23;;;;;;;;;;5041227;28;20050;-70
2022/01/04 01:48:49;;;;;;;20.73;11.52;;;;;;;;;;5031497;28;20050;-72
2022/01/04 01:51:17;;;;;;;21.13;11.55;;;;;;;;;;5032404;28;20065;-72
2022/01/04 01:53:43;;;;;;;22.92;11.90;;;;;;;;;;5033319;28;20054;-71
2022/01/04 01:56:10;;;;;;;21.73;12.55;;;;;;;;;;5033563;28;20061;-72
2022/01/04 01:58:36;;;;;;;20.13;11.68;;;;;;;;;;5031594;28;20054;-71
2022/01/04 02:01:03;;;;;;;25.27;11.68;;;;;;;;;;5031547;28;20060;-71
2022/01/04 02:03:29;;;;;;;28.63;12.10;;;;;;;;;;5029919;28;20140;-72
2022/01/04 02:05:56;;;;;;;22.30;11.95;;;;;;;;;;5031929;28;20064;-70
2022/01/04 02:08:22;;;;;;;19.70;10.82;;;;;;;;;;5032845;28;20133;-72
2022/01/04 02:10:50;;;;;;;22.27;11.30;;;;;;;;;;5038256;28;20503;-71
2022/01/04 02:13:17;;;;;;;22.73;13.25;;;;;;;;;;5045757;28;20050;-71
2022/01/04 02:15:43;;;;;;;18.65;12.27;;;;;;;;;;5032275;28;20052;-71
2022/01/04 02:18:09;;;;;;;19.17;11.52;;;;;;;;;;5040585;28;20596;-73
2022/01/04 02:20:36;;;;;;;20.08;11.65;;;;;;;;;;5037619;28;20057;-72
2022/01/04 02:23:02;;;;;;;22.23;12.45;;;;;;;;;;5033113;28;20081;-72
2022/01/04 02:25:28;;;;;;;23.88;12.68;;;;;;;;;;5032552;28;20064;-72
2022/01/04 02:27:55;;;;;;;16.85;12.50;;;;;;;;;;5032794;28;20049;-72
2022/01/04 02:30:22;;;;;;;17.40;10.95;;;;;;;;;;5032655;28;20504;-73
2022/01/04 02:32:48;;;;;;;23.63;12.40;;;;;;;;;;5032796;28;20054;-71
2022/01/04 02:35:16;;;;;;;29.30;12.68;;;;;;;;;;5029147;28;20080;-70
2022/01/04 02:37:42;;;;;;;22.25;12.32;;;;;;;;;;5033526;28;20054;-71
2022/01/04 02:40:09;;;;;;;24.55;12.25;;;;;;;;;;5032636;28;20483;-71
2022/01/04 02:42:35;;;;;;;21.98;12.15;;;;;;;;;;5032581;28;20132;-72
2022/01/04 02:45:02;;;;;;;20.70;11.70;;;;;;;;;;5046182;28;20060;-70
2022/01/04 02:47:31;;;;;;;18.90;11.82;;;;;;;;;;5027949;28;20137;-71
2022/01/04 02:49:58;;;;;;;21.05;11.68;;;;;;;;;;5032556;28;20612;-71
2022/01/04 02:52:24;;;;;;;20.42;12.63;;;;;;;;;;5032278;28;20058;-72
2022/01/04 02:54:50;;;;;;;26.80;13.15;;;;;;;;;;5031932;28;20056;-71
2022/01/04 02:57:17;;;;;;;19.80;12.07;;;;;;;;;;5036821;28;20148;-71
2022/01/04 02:59:44;;;;;;;18.30;12.50;;;;;;;;;;5032463;28;20054;-71
2022/01/04 03:02:10;;;;;;;19.67;11.32;;;;;;;;;;5031534;28;20050;-72
2022/01/04 03:04:37;;;;;;;19.58;11.65;;;;;;;;;;5032211;28;20057;-71
2022/01/04 03:07:04;;;;;;;19.75;12.32;;;;;;;;;;5032161;28;20058;-71
2022/01/04 03:09:30;;;;;;;22.48;12.82;;;;;;;;;;5030955;28;20498;-70
2022/01/04 03:11:57;;;;;;;18.40;13.10;;;;;;;;;;5033910;28;20050;-70
2022/01/04 03:14:23;;;;;;;21.02;12.63;;;;;;;;;;5033483;28;20054;-70
2022/01/04 03:16:50;;;;;;;17.75;12.63;;;;;;;;;;5035526;28;20056;-72
2022/01/04 03:19:16;;;;;;;22.73;13.27;;;;;;;;;;5036031;28;20054;-71
2022/01/04 03:21:43;;;;;;;18.17;12.07;;;;;;;;;;5034873;28;20488;-71
2022/01/04 03:24:11;;;;;;;23.17;13.43;;;;;;;;;;5035596;28;20064;-71
2022/01/04 03:26:38;;;;;;;22.92;12.18;;;;;;;;;;5035507;28;20049;-71
2022/01/04 03:29:05;;;;;;;18.30;12.32;;;;;;;;;;5031471;28;20069;-71
2022/01/04 03:31:32;;;;;;;21.95;13.00;;;;;;;;;;5033612;28;20061;-72
2022/01/04 03:33:58;;;;;;;21.85;13.60;;;;;;;;;;5035390;28;20054;-71
2022/01/04 03:36:25;;;;;;;20.45;14.68;;;;;;;;;;5035254;28;20064;-71
2022/01/04 03:38:54;;;;;;;24.60;14.10;;;;;;;;;;5034982;28;20498;-71
2022/01/04 03:41:22;;;;;;;24.58;13.73;;;;;;;;;;5035440;28;20057;-71
2022/01/04 03:43:48;;;;;;;19.90;13.75;;;;;;;;;;5035599;28;20561;-72
2022/01/04 03:46:15;;;;;;;20.20;13.93;;;;;;;;;;5033215;28;20058;-72
2022/01/04 03:48:41;;;;;;;25.58;13.50;;;;;;;;;;5035062;28;20057;-71
2022/01/04 03:51:08;;;;;;;21.63;13.90;;;;;;;;;;5034940;28;20049;-70
2022/01/04 03:53:34;;;;;;;19.50;13.32;;;;;;;;;;5032414;28;20054;-71
2022/01/04 03:56:01;;;;;;;20.10;13.90;;;;;;;;;;5034926;28;20058;-71
2022/01/04 03:58:27;;;;;;;23.40;14.20;;;;;;;;;;5035375;28;20054;-71
2022/01/04 04:00:53;;;;;;;21.60;13.43;;;;;;;;;;5034787;28;20061;-72
2022/01/04 04:03:20;;;;;;;23.67;13.85;;;;;;;;;;5034758;28;20058;-72
2022/01/04 04:05:47;;;;;;;22.52;14.18;;;;;;;;;;5035200;28;20065;-70
2022/01/04 04:08:13;;;;;;;23.08;14.35;;;;;;;;;;5018274;28;20057;-71
2022/01/04 04:10:39;;;;;;;25.00;13.93;;;;;;;;;;5049531;28;20049;-72
2022/01/04 04:13:05;;;;;;;22.05;14.13;;;;;;;;;;5035190;28;20062;-71
2022/01/04 04:15:32;;;;;;;24.42;13.98;;;;;;;;;;5034438;28;20150;-72
2022/01/04 04:17:58;;;;;;;23.88;13.75;;;;;;;;;;5035857;28;20054;-72
2022/01/04 04:20:25;;;;;;;20.90;13.85;;;;;;;;;;5034727;28;20588;-71
2022/01/04 04:22:51;;;;;;;25.90;14.80;;;;;;;;;;5033494;28;20054;-71
2022/01/04 04:25:17;;;;;;;21.20;13.73;;;;;;;;;;5034621;28;20512;-71
2022/01/04 04:27:44;;;;;;;22.50;14.35;;;;;;;;;;5034294;28;20509;-71
2022/01/04 04:30:10;;;;;;;27.63;13.70;;;;;;;;;;5034676;28;20061;-72
2022/01/04 04:32:37;;;;;;;20.73;13.63;;;;;;;;;;5045693;28;20140;-72
2022/01/04 04:35:04;;;;;;;22.33;13.63;;;;;;;;;;5034508;28;20060;-72
2022/01/04 04:37:30;;;;;;;23.38;14.02;;;;;;;;;;5034679;28;20060;-72
2022/01/04 04:39:56;;;;;;;25.08;14.10;;;;;;;;;;5033732;28;20597;-72
2022/01/04 04:42:23;;;;;;;22.17;13.98;;;;;;;;;;5034683;28;20418;-71
2022/01/04 04:44:49;;;;;;;26.10;13.73;;;;;;;;;;5034292;28;20061;-70
2022/01/04 04:47:15;;;;;;;26.98;14.10;;;;;;;;;;5034335;28;20141;-71
2022/01/04 04:49:41;;;;;;;27.33;14.68;;;;;;;;;;5034351;28;20057;-72
2022/01/04 04:52:08;;;;;;;22.33;14.18;;;;;;;;;;5034487;28;20053;-72
2022/01/04 04:54:34;;;;;;;24.60;14.70;;;;;;;;;;5034937;28;20528;-73
2022/01/04 04:57:00;;;;;;;24.08;13.68;;;;;;;;;;5030070;28;20061;-71
2022/01/04 04:59:27;;;;;;;27.42;13.82;;;;;;;;;;5022500;28;20207;-72
2022/01/04 05:01:53;;;;;;;22.42;13.90;;;;;;;;;;5029893;28;20053;-72
2022/01/04 05:04:20;;;;;;;29.77;14.65;;;;;;;;;;5039632;28;20544;-71
2022/01/04 05:06:46;;;;;;;32.22;14.10;;;;;;;;;;5033864;28;20506;-72
2022/01/04 05:09:13;;;;;;;22.55;14.77;;;;;;;;;;5033982;28;20050;-72
2022/01/04 05:11:39;;;;;;;23.90;14.30;;;;;;;;;;5031945;28;20058;-70
2022/01/04 05:14:05;;;;;;;23.52;13.32;;;;;;;;;;5032130;28;20537;-69
2022/01/04 05:16:31;;;;;;;22.38;13.25;;;;;;;;;;5032903;28;20057;-71
2022/01/04 05:18:58;;;;;;;22.88;13.10;;;;;;;;;;5033568;28;20074;-71
2022/01/04 05:21:24;;;;;;;23.48;13.13;;;;;;;;;;5033749;28;20145;-73
2022/01/04 05:23:52;;;;;;;17.65;12.70;;;;;;;;;;5033436;28;20049;-71
2022/01/04 05:26:18;;;;;;;19.20;13.20;;;;;;;;;;5033342;28;20518;-73
2022/01/04 05:28:45;;;;;;;23.08;13.52;;;;;;;;;;5033065;28;20570;-71
2022/01/04 05:31:12;;;;;;;19.95;12.80;;;;;;;;;;5036624;28;20058;-71
2022/01/04 05:33:39;;;;;;;22.55;12.40;;;;;;;;;;5032455;28;20478;-72
2022/01/04 05:36:05;;;;;;;19.35;12.68;;;;;;;;;;5033731;28;20053;-73
2022/01/04 05:38:32;;;;;;;22.25;13.13;;;;;;;;;;5033830;28;20100;-72
2022/01/04 05:40:58;;;;;;;20.75;12.50;;;;;;;;;;5033613;28;20054;-71
2022/01/04 05:43:25;;;;;;;25.95;13.63;;;;;;;;;;5033155;28;21020;-71
2022/01/04 05:45:51;;;;;;;17.65;12.35;;;;;;;;;;5031181;28;20435;-70
2022/01/04 05:48:20;;;;;;;20.63;12.68;;;;;;;;;;5031637;28;20520;-72
2022/01/04 05:50:47;;;;;;;18.50;12.88;;;;;;;;;;5033615;28;20085;-71
2022/01/04 05:53:13;;;;;;;20.25;12.77;;;;;;;;;;5028452;28;20050;-72
2022/01/04 05:55:39;;;;;;;20.88;13.20;;;;;;;;;;5016856;28;20054;-71
2022/01/04 05:58:06;;;;;;;19.95;12.95;;;;;;;;;;5026049;28;20057;-72
2022/01/04 06:00:32;;;;;;;22.52;12.82;;;;;;;;;;5027644;28;20447;-70
2022/01/04 06:03:01;;;;;;;21.13;13.60;;;;;;;;;;5018314;28;20050;-72
2022/01/04 06:05:27;;;;;;;25.83;14.57;;;;;;;;;;5017999;28;20070;-71
2022/01/04 06:07:53;;;;;;;22.23;14.23;;;;;;;;;;5025955;28;20556;-71
2022/01/04 06:10:20;;;;;;;22.75;14.27;;;;;;;;;;5023214;28;20066;-71
2022/01/04 06:15:14;;;;;;;21.67;14.13;;;;;;;;;;5029137;28;20053;-72
2022/01/04 06:17:49;;;;;;;24.55;15.48;;;;;;;;;;5025624;28;20058;-71
2022/01/04 06:20:17;;;;;;;21.50;14.48;;;;;;;;;;5017029;28;20133;-72
2022/01/04 06:22:44;;;;;;;25.85;14.32;;;;;;;;;;5023218;28;20054;-71
2022/01/04 06:25:12;;;;;;;25.38;15.82;;;;;;;;;;5028586;28;20177;-71
2022/01/04 06:27:41;;;;;;;24.40;15.82;;;;;;;;;;5017450;28;20457;-71
2022/01/04 06:30:07;;;;;;;26.95;15.45;;;;;;;;;;5027780;28;20057;-70
2022/01/04 06:32:36;;;;;;;25.27;14.77;;;;;;;;;;5016936;28;20142;-71
2022/01/04 06:35:03;;;;;;;25.35;16.50;;;;;;;;;;5023316;28;20113;-70
2022/01/04 06:37:29;;;;;;;26.88;14.45;;;;;;;;;;5015830;28;20154;-72
2022/01/04 06:39:55;;;;;;;28.63;17.08;;;;;;;;;;5023619;28;20045;-71
2022/01/04 06:42:22;;;;;;;25.15;15.90;;;;;;;;;;5020470;28;20506;-72
2022/01/04 06:44:48;;;;;;;26.13;15.27;;;;;;;;;;5020685;28;20050;-71
2022/01/04 06:47:14;;;;;;;29.55;16.48;;;;;;;;;;5028770;28;20058;-71
2022/01/04 06:49:41;;;;;;;26.60;16.45;;;;;;;;;;5028818;28;20053;-70
2022/01/04 06:52:08;;;;;;;31.02;16.92;;;;;;;;;;5033938;28;20053;-70
2022/01/04 06:54:35;;;;;;;23.08;15.68;;;;;;;;;;5036431;28;20152;-70
2022/01/04 06:57:01;;;;;;;23.05;14.80;;;;;;;;;;5034465;28;20530;-71
2022/01/04 06:59:28;;;;;;;25.15;15.00;;;;;;;;;;5038025;28;20054;-70
2022/01/04 07:01:54;;;;;;;22.42;15.02;;;;;;;;;;5034723;28;20058;-70
2022/01/04 07:04:21;;;;;;;23.00;15.13;;;;;;;;;;5034243;28;20116;-71
2022/01/04 07:06:47;;;;;;;21.05;14.68;;;;;;;;;;5034294;28;20057;-70
2022/01/04 07:09:14;;;;;;;24.80;15.13;;;;;;;;;;5033743;28;20460;-69
2022/01/04 07:11:40;;;;;;;26.33;14.85;;;;;;;;;;5034784;28;20054;-71
2022/01/04 07:14:06;;;;;;;25.83;15.90;;;;;;;;;;5032068;28;20086;-69
2022/01/04 07:16:33;;;;;;;23.50;14.30;;;;;;;;;;5031545;28;20054;-70
2022/01/04 07:18:59;;;;;;;20.42;14.18;;;;;;;;;;5034844;28;20072;-73
2022/01/04 07:21:25;;;;;;;23.05;14.75;;;;;;;;;;5034656;28;20057;-70
2022/01/04 07:23:54;;;;;;;21.70;15.32;;;;;;;;;;5034109;28;20054;-72
2022/01/04 07:26:21;;;;;;;23.35;15.43;;;;;;;;;;5032184;28;20046;-71
2022/01/04 07:28:48;;;;;;;24.02;15.38;;;;;;;;;;5035455;28;20089;-71
2022/01/04 07:31:15;;;;;;;25.10;17.08;;;;;;;;;;5034068;28;20054;-70
2022/01/04 07:33:42;;;;;;;25.05;16.10;;;;;;;;;;5033241;28;20145;-71
2022/01/04 07:36:08;;;;;;;22.73;14.70;;;;;;;;;;5035180;28;20529;-71
2022/01/04 07:38:36;;;;;;;23.80;15.52;;;;;;;;;;5034545;28;20508;-71
2022/01/04 07:41:02;;;;;;;24.58;15.75;;;;;;;;;;5034936;28;20486;-69
2022/01/04 07:43:29;;;;;;;25.48;17.10;;;;;;;;;;5032413;28;20062;-69
2022/01/04 07:45:55;;;;;;;24.00;16.23;;;;;;;;;;5033135;28;20050;-69
2022/01/04 07:48:22;;;;;;;25.05;15.40;;;;;;;;;;5033367;28;20058;-69
2022/01/04 07:50:49;;;;;;;24.77;15.70;;;;;;;;;;5031440;28;20045;-70
2022/01/04 07:53:20;;;;;;;28.38;17.13;;;;;;;;;;5033222;28;20057;-70
2022/01/04 07:55:46;;;;;;;26.27;16.38;;;;;;;;;;5044686;28;20060;-71
2022/01/04 07:58:13;;;;;;;26.25;15.88;;;;;;;;;;5030288;28;20050;-71
2022/01/04 08:00:39;;;;;;;24.83;16.13;;;;;;;;;;5031873;28;20057;-70
2022/01/04 08:03:07;;;;;;;29.50;15.48;;;;;;;;;;5033173;28;20065;-71
2022/01/04 08:05:33;;;;;;;26.17;15.98;;;;;;;;;;5032610;28;20112;-70
2022/01/04 08:07:59;;;;;;;23.83;16.27;;;;;;;;;;5031975;28;20147;-70
2022/01/04 08:10:26;;;;;;;24.52;15.63;;;;;;;;;;5032841;28;20058;-69
2022/01/04 08:12:52;;;;;;;24.85;16.25;;;;;;;;;;5032906;28;20061;-71
2022/01/04 08:15:18;;;;;;;28.58;16.55;;;;;;;;;;5032064;28;20061;-69
2022/01/04 08:17:45;;;;;;;29.98;16.38;;;;;;;;;;5032627;28;20153;-69
2022/01/04 08:20:11;;;;;;;28.67;16.35;;;;;;;;;;5032629;28;20049;-70
2022/01/04 08:22:38;;;;;;;25.00;14.68;;;;;;;;;;5032841;28;20129;-69
2022/01/04 08:25:05;;;;;;;23.35;13.60;;;;;;;;;;5033119;28;20050;-69
2022/01/04 08:27:32;;;;;;;16.05;10.63;;;;;;;;;;5034695;28;20061;-71
2022/01/04 08:29:58;;;;;;;18.33;12.52;;;;;;;;;;5031705;28;20050;-70
2022/01/04 08:32:24;;;;;;;17.75;12.45;;;;;;;;;;5030542;28;20054;-71
2022/01/04 08:34:51;;;;;;;17.42;9.65;;;;;;;;;;5032472;28;20088;-68
2022/01/04 08:37:17;;;;;;;12.10;8.80;;;;;;;;;;5031942;28;20054;-69
2022/01/04 08:39:44;;;;;;;14.93;9.50;;;;;;;;;;5032514;28;20057;-69
2022/01/04 08:42:11;;;;;;;19.25;11.52;;;;;;;;;;5047350;28;20057;-70
2022/01/04 08:44:39;;;;;;;23.88;14.20;;;;;;;;;;5031964;28;20058;-71
2022/01/04 08:47:07;;;;;;;24.52;13.95;;;;;;;;;;5034542;28;20145;-70
2022/01/04 08:49:34;;;;;;;33.42;15.52;;;;;;;;;;5033787;28;20097;-69
2022/01/04 08:52:02;;;;;;;28.02;16.52;;;;;;;;;;5033877;28;20073;-72
2022/01/04 08:54:29;;;;;;;26.75;16.63;;;;;;;;;;5034112;28;20061;-71
2022/01/04 08:56:56;;;;;;;30.85;17.73;;;;;;;;;;5029919;28;20050;-69
2022/01/04 08:59:22;;;;;;;26.90;17.27;;;;;;;;;;5030595;28;20054;-70
2022/01/04 09:01:48;;;;;;;34.45;18.33;;;;;;;;;;5030668;28;20508;-70
2022/01/04 09:04:15;;;;;;;27.17;17.52;;;;;;;;;;5031545;28;20116;-70
2022/01/04 09:06:41;;;;;;;30.17;18.10;;;;;;;;;;5032081;28;20054;-72
2022/01/04 09:09:08;;;;;;;30.65;18.98;;;;;;;;;;5031733;28;20054;-70
2022/01/04 09:11:34;;;;;;;28.33;17.25;;;;;;;;;;5031317;28;20060;-70
2022/01/04 09:14:26;;;;;;;28.23;17.20;;;;;;;;;;5047954;28;20262;-74
2022/01/04 09:19:32;;;;;;;29.70;16.63;;;;;;;;;;5030172;28;20055;-74
2022/01/04 09:21:58;;;;;;;28.83;16.48;;;;;;;;;;5030700;28;20445;-72
2022/01/04 09:24:26;;;;;;;25.92;15.95;;;;;;;;;;5031703;28;20117;-70
2022/01/04 09:26:52;;;;;;;30.45;16.90;;;;;;;;;;5030998;28;20137;-72
2022/01/04 09:29:19;;;;;;;24.20;15.73;;;;;;;;;;5033495;28;20085;-73
2022/01/04 09:31:46;;;;;;;25.30;15.45;;;;;;;;;;5032012;28;20562;-71
2022/01/04 09:34:13;;;;;;;29.27;15.70;;;;;;;;;;5032095;28;20062;-68
2022/01/04 09:36:39;;;;;;;26.30;15.75;;;;;;;;;;5025842;28;20062;-70
2022/01/04 09:39:07;;;;;;;32.15;15.82;;;;;;;;;;5025837;28;20062;-70
2022/01/04 09:41:34;;;;;;;31.88;15.35;;;;;;;;;;5031134;28;20549;-70
2022/01/04 09:44:02;;;;;;;17.33;11.98;;;;;;;;;;5030512;28;20046;-63
2022/01/04 09:46:29;;;;;;;24.17;13.57;;;;;;;;;;5030486;28;20558;-71
2022/01/04 09:48:56;;;;;;;24.52;14.38;;;;;;;;;;5031013;28;20050;-69
2022/01/04 09:51:23;;;;;;;29.70;15.85;;;;;;;;;;5029702;28;20042;-69
2022/01/04 09:53:50;;;;;;;23.58;15.45;;;;;;;;;;5030066;28;20136;-71
2022/01/04 09:56:16;;;;;;;25.92;15.88;;;;;;;;;;5028655;28;20053;-72
2022/01/04 09:58:42;;;;;;;21.45;14.27;;;;;;;;;;5030482;28;20046;-74
2022/01/04 10:01:19;;;;;;;22.60;13.77;;;;;;;;;;5031494;28;20486;-73
2022/01/04 10:04:05;;;;;;;29.48;14.85;;;;;;;;;;5011642;28;20511;-71
2022/01/04 10:06:34;;;;;;;23.67;13.90;;;;;;;;;;5011743;28;20054;-73
2022/01/04 10:09:03;;;;;;;26.67;13.75;;;;;;;;;;5011815;28;20494;-72
2022/01/04 10:11:30;;;;;;;24.85;13.10;;;;;;;;;;5012570;28;20054;-74
2022/01/04 10:13:58;;;;;;;23.23;12.65;;;;;;;;;;5018253;28;20061;-74
2022/01/04 10:16:24;;;;;;;22.67;13.10;;;;;;;;;;5031333;28;20054;-74
2022/01/04 10:18:51;;;;;;;22.95;12.80;;;;;;;;;;5030288;28;20145;-74
2022/01/04 10:21:17;;;;;;;25.75;12.55;;;;;;;;;;5031053;28;20057;-73
2022/01/04 10:23:46;;;;;;;17.70;12.05;;;;;;;;;;5031379;28;20060;-73
2022/01/04 10:26:12;;;;;;;22.13;11.65;;;;;;;;;;5030215;28;20141;-72
2022/01/04 10:28:39;;;;;;;17.77;11.20;;;;;;;;;;5031320;28;20057;-73
2022/01/04 10:31:07;;;;;;;18.33;11.57;;;;;;;;;;5027578;28;20498;-75
2022/01/04 10:33:34;;;;;;;22.70;11.98;;;;;;;;;;5032345;28;20065;-76
2022/01/04 10:36:05;;;;;;;23.45;11.00;;;;;;;;;;5026690;28;20418;-75
2022/01/04 10:38:35;;;;;;;19.88;9.43;;;;;;;;;;5023584;28;20053;-73
2022/01/04 10:41:01;;;;;;;23.45;10.15;;;;;;;;;;5026857;28;20049;-74
2022/01/04 10:43:32;;;;;;;19.95;9.02;;;;;;;;;;5030090;28;20054;-74
2022/01/04 10:46:00;;;;;;;25.42;10.27;;;;;;;;;;5030638;28;20054;-74
2022/01/04 10:48:29;;;;;;;23.52;9.40;;;;;;;;;;5031038;28;20062;-73
2022/01/04 10:51:03;;;;;;;19.30;9.70;;;;;;;;;;5031209;28;20056;-73
2022/01/04 10:53:43;;;;;;;15.15;8.23;;;;;;;;;;5032400;28;20056;-74
2022/01/04 10:56:11;;;;;;;21.48;9.38;;;;;;;;;;5028706;28;20101;-71
2022/01/04 10:58:39;;;;;;;19.25;8.15;;;;;;;;;;5021465;28;20056;-72
2022/01/04 11:01:10;;;;;;;16.90;7.63;;;;;;;;;;5013894;28;20100;-73
2022/01/04 11:03:38;;;;;;;17.50;8.05;;;;;;;;;;5013643;28;20073;-75
2022/01/04 11:06:06;;;;;;;17.45;7.85;;;;;;;;;;5029896;28;20545;-72
2022/01/04 11:08:32;;;;;;;17.10;7.60;;;;;;;;;;5025527;28;20138;-73
2022/01/04 11:10:58;;;;;;;17.17;6.95;;;;;;;;;;5036920;28;20569;-72
2022/01/04 11:13:25;;;;;;;15.85;7.00;;;;;;;;;;5051343;28;20413;-75
2022/01/04 11:15:53;;;;;;;20.77;7.25;;;;;;;;;;5051320;28;20064;-73
2022/01/04 11:18:19;;;;;;;23.45;7.28;;;;;;;;;;5050467;28;20050;-75
2022/01/04 11:20:46;;;;;;;18.60;7.07;;;;;;;;;;5052155;28;20401;-75
2022/01/04 11:23:13;;;;;;;17.67;4.85;;;;;;;;;;5037653;28;20133;-73
2022/01/04 11:25:42;;;;;;;8.60;2.45;;;;;;;;;;5015902;28;20050;-74
2022/01/04 11:28:09;;;;;;;7.50;1.77;;;;;;;;;;5029345;28;20519;-72
2022/01/04 11:30:48;;;;;;;4.43;2.15;;;;;;;;;;5030841;28;20178;-74
2022/01/04 11:33:32;;;;;;;5.72;1.52;;;;;;;;;;5033728;28;20053;-72
2022/01/04 11:35:59;;;;;;;7.22;1.80;;;;;;;;;;5034027;28;20512;-72
2022/01/04 11:38:32;;;;;;;6.60;1.38;;;;;;;;;;5033716;28;20127;-72
2022/01/04 11:40:59;;;;;;;6.88;1.50;;;;;;;;;;5033612;28;20049;-73
2022/01/04 11:43:33;;;;;;;3.95;1.42;;;;;;;;;;5033038;28;20152;-72
2022/01/04 11:45:59;;;;;;;3.67;1.30;;;;;;;;;;5033816;28;20049;-73
2022/01/04 11:48:33;;;;;;;2.70;1.10;;;;;;;;;;5029152;28;20057;-72
2022/01/04 11:51:02;;;;;;;2.97;1.05;;;;;;;;;;5030928;28;20124;-74
2022/01/04 11:53:28;;;;;;;3.95;0.90;;;;;;;;;;5033255;28;20086;-72
2022/01/04 11:55:56;;;;;;;4.40;1.45;;;;;;;;;;5026892;28;20139;-73
2022/01/04 11:58:24;;;;;;;5.60;1.67;;;;;;;;;;5032882;28;20054;-72
2022/01/04 12:01:00;;;;;;;4.35;1.40;;;;;;;;;;5027593;28;20053;-73
2022/01/04 12:03:38;;;;;;;3.33;1.23;;;;;;;;;;5034224;28;20073;-76
2022/01/04 12:06:05;;;;;;;6.65;1.40;;;;;;;;;;5032986;28;20169;-74
2022/01/04 12:08:40;;;;;;;5.47;1.70;;;;;;;;;;5033238;28;20062;-74
2022/01/04 12:11:26;;;;;;;8.98;1.95;;;;;;;;;;5033379;28;20149;-72
2022/01/04 12:13:53;;;;;;;5.40;1.20;;;;;;;;;;5034959;28;20573;-74
2022/01/04 12:16:32;;;;;;;2.20;1.25;;;;;;;;;;5031296;28;20058;-73
2022/01/04 12:18:59;;;;;;;4.60;1.58;;;;;;;;;;5018458;28;20050;-73
2022/01/04 12:21:27;;;;;;;3.40;1.20;;;;;;;;;;5043378;28;20058;-75
2022/01/04 12:23:54;;;;;;;7.40;1.40;;;;;;;;;;5031268;28;20145;-72
2022/01/04 12:26:21;;;;;;;4.35;1.48;;;;;;;;;;5032159;28;20050;-72
2022/01/04 12:28:54;;;;;;;7.00;1.50;;;;;;;;;;5013957;28;20116;-73
2022/01/04 12:31:20;;;;;;;3.92;1.65;;;;;;;;;;5017618;28;20057;-74
2022/01/04 12:33:48;;;;;;;2.35;1.00;;;;;;;;;;5034250;28;20057;-74
2022/01/04 12:36:33;;;;;;;2.08;0.95;;;;;;;;;;5034125;28;20144;-72
2022/01/04 12:39:02;;;;;;;6.40;1.27;;;;;;;;;;5032752;28;20178;-71
2022/01/04 12:41:31;;;;;;;5.07;1.50;;;;;;;;;;5029839;28;20149;-74
2022/01/04 12:43:59;;;;;;;9.80;1.85;;;;;;;;;;5033869;28;20575;-74
2022/01/04 12:46:29;;;;;;;4.70;1.75;;;;;;;;;;5014332;28;20144;-73
2022/01/04 12:48:59;;;;;;;4.93;2.00;;;;;;;;;;5020909;28;20062;-74
2022/01/04 12:51:26;;;;;;;3.75;1.55;;;;;;;;;;5031598;28;20598;-73
2022/01/04 12:53:54;;;;;;;4.35;1.35;;;;;;;;;;5031468;28;20437;-73
2022/01/04 12:56:20;;;;;;;5.18;1.73;;;;;;;;;;5023170;28;20064;-73
2022/01/04 12:58:46;;;;;;;5.93;1.38;;;;;;;;;;5028442;28;20052;-73
2022/01/04 13:01:13;;;;;;;4.95;1.88;;;;;;;;;;5021829;28;20054;-72
2022/01/04 13:03:39;;;;;;;4.43;1.23;;;;;;;;;;5016225;28;20158;-75
2022/01/04 13:06:06;;;;;;;3.67;1.30;;;;;;;;;;5040015;28;20050;-75
2022/01/04 13:08:33;;;;;;;4.25;0.95;;;;;;;;;;5030506;28;20144;-72
2022/01/04 13:11:06;;;;;;;3.92;1.15;;;;;;;;;;5020294;28;20490;-73
2022/01/04 13:13:32;;;;;;;6.03;1.10;;;;;;;;;;5026790;28;20061;-74
2022/01/04 13:16:20;;;;;;;6.80;1.40;;;;;;;;;;5019489;28;20058;-75
2022/01/04 13:18:48;;;;;;;4.10;0.98;;;;;;;;;;5019525;28;20612;-74
2022/01/04 13:21:14;;;;;;;8.45;1.88;;;;;;;;;;5032164;28;20058;-74
2022/01/04 13:23:42;;;;;;;3.13;0.88;;;;;;;;;;5031180;28;20057;-73
2022/01/04 13:26:11;;;;;;;5.18;1.08;;;;;;;;;;5021536;28;20085;-71
2022/01/04 13:28:38;;;;;;;6.43;1.10;;;;;;;;;;5024575;28;20054;-74
2022/01/04 13:31:04;;;;;;;3.35;1.23;;;;;;;;;;5024897;28;20053;-74
2022/01/04 13:33:36;;;;;;;5.85;1.40;;;;;;;;;;5029590;28;20522;-73
2022/01/04 13:36:07;;;;;;;4.97;1.15;;;;;;;;;;5030369;28;20050;-69
2022/01/04 13:38:36;;;;;;;6.03;1.13;;;;;;;;;;5031669;28;20085;-73
2022/01/04 13:41:03;;;;;;;9.60;2.38;;;;;;;;;;5031569;28;20393;-73
2022/01/04 13:43:33;;;;;;;6.47;1.20;;;;;;;;;;5033260;28;20520;-76
2022/01/04 13:46:00;;;;;;;3.00;1.42;;;;;;;;;;5045548;28;20069;-75
2022/01/04 13:48:28;;;;;;;3.17;1.38;;;;;;;;;;5018499;28;20064;-73
2022/01/04 13:51:02;;;;;;;3.22;1.25;;;;;;;;;;5032937;28;20501;-77
2022/01/04 13:53:33;;;;;;;11.77;2.42;;;;;;;;;;5031540;28;20101;-77
2022/01/04 13:56:01;;;;;;;6.20;1.95;;;;;;;;;;5025836;28;20589;-74
2022/01/04 13:58:30;;;;;;;6.38;1.15;;;;;;;;;;5026398;28;20520;-73
2022/01/04 14:00:56;;;;;;;4.30;0.77;;;;;;;;;;5020173;28;20046;-76
2022/01/04 14:03:27;;;;;;;2.55;1.00;;;;;;;;;;5025252;28;20573;-73
2022/01/04 14:05:54;;;;;;;2.50;0.73;;;;;;;;;;5031099;28;20046;-73
2022/01/04 14:08:21;;;;;;;3.10;1.10;;;;;;;;;;5030188;28;20075;-75
2022/01/04 14:10:48;;;;;;;2.88;1.15;;;;;;;;;;5030968;28;20053;-72
2022/01/04 14:13:28;;;;;;;2.67;0.70;;;;;;;;;;5030753;28;20053;-73
2022/01/04 14:16:13;;;;;;;2.42;0.68;;;;;;;;;;5032478;28;20421;-71
2022/01/04 14:18:40;;;;;;;;;;;;;;;;;;5029981;28;20050;-72
2022/01/04 14:21:06;;;;;;;;;;;;;;;;;;5030513;28;46774;-70
2022/01/04 14:23:34;;;;;;;4.85;0.95;;;;;;;;;;5030401;28;43649;-75
2022/01/04 14:26:01;;;;;;;5.03;0.77;;;;;;;;;;5030592;28;20530;-75
2022/01/04 14:28:33;;;;;;;9.07;0.98;;;;;;;;;;5023005;28;20053;-72
2022/01/04 14:30:59;;;;;;;3.42;0.80;;;;;;;;;;5031426;28;20058;-73
2022/01/04 14:33:26;;;;;;;3.67;0.80;;;;;;;;;;5033248;28;20054;-75